Time;durP1;ratioP1;P1;durP2;ratioP2;P2;SDS_P1;SDS_P2;PMS_P1;PMS_P2;Temp;Humidity;BMP_temperature;BMP_pressure;BME280_temperature;BME280_humidity;BME280_pressure;Samples;Min_cycle;Max_cycle;Signal;HPM_P1;HPM_P2
2023/12/22 00:00:07;;;;;;;1.75;0.80;;;;;;;21.06;29.14;98659.91;4463710;28;20095;-48
2023/12/22 00:02:18;;;;;;;1.42;0.70;;;;;;;21.06;29.20;98659.13;4473540;28;20042;-48
2023/12/22 00:04:28;;;;;;;1.63;0.80;;;;;;;21.06;29.27;98668.53;4463968;28;20020;-48
2023/12/22 00:06:40;;;;;;;2.63;0.70;;;;;;;21.06;29.38;98670.59;4463696;28;20034;-48
2023/12/22 00:08:50;;;;;;;2.00;0.75;;;;;;;21.06;28.95;98667.72;4462476;28;20051;-48
2023/12/22 00:11:01;;;;;;;1.92;0.63;;;;;;;21.06;29.21;98665.66;4463176;28;20391;-48
2023/12/22 00:13:11;;;;;;;2.08;0.80;;;;;;;21.05;28.96;98668.94;4463804;28;20050;-48
2023/12/22 00:15:21;;;;;;;1.85;0.80;;;;;;;21.06;28.99;98671.38;4462576;28;20089;-48
2023/12/22 00:17:32;;;;;;;2.05;0.65;;;;;;;21.05;29.38;98675.50;4471141;28;20039;-49
2023/12/22 00:19:42;;;;;;;2.22;0.60;;;;;;;21.05;28.79;98684.09;4462531;28;20131;-49
2023/12/22 00:21:53;;;;;;;2.28;0.68;;;;;;;21.04;28.87;98685.31;4462580;28;20045;-48
2023/12/22 00:24:04;;;;;;;1.75;0.60;;;;;;;21.03;28.63;98695.16;4462972;28;20038;-49
2023/12/22 00:26:15;;;;;;;1.63;0.60;;;;;;;21.03;28.46;98689.44;4462715;28;20046;-49
2023/12/22 00:28:25;;;;;;;2.05;0.75;;;;;;;21.03;28.77;98686.56;4463424;28;20031;-48
2023/12/22 00:30:36;;;;;;;1.67;0.80;;;;;;;21.03;28.35;98700.06;4463232;28;20123;-49
2023/12/22 00:32:46;;;;;;;2.80;0.85;;;;;;;21.03;27.95;98712.38;4463162;28;20494;-47
2023/12/22 00:34:58;;;;;;;2.22;0.80;;;;;;;21.02;28.54;98710.75;4461452;28;22830;-48
2023/12/22 00:37:08;;;;;;;2.75;0.82;;;;;;;21.01;27.93;98706.22;4462428;28;20043;-47
2023/12/22 00:39:19;;;;;;;1.90;0.73;;;;;;;21.03;27.93;98711.56;4463276;28;23150;-49
2023/12/22 00:41:29;;;;;;;3.15;1.00;;;;;;;21.02;27.85;98707.88;4462023;28;20318;-48
2023/12/22 00:43:39;;;;;;;1.52;0.60;;;;;;;21.02;27.89;98719.38;4462892;28;20043;-48
2023/12/22 00:45:50;;;;;;;1.55;0.68;;;;;;;21.02;28.05;98716.50;4461931;28;30890;-47
2023/12/22 00:48:00;;;;;;;1.52;0.80;;;;;;;21.01;28.07;98711.97;4462005;28;20731;-48
2023/12/22 00:50:10;;;;;;;1.88;0.70;;;;;;;21.01;27.72;98714.84;4463655;28;20070;-48
2023/12/22 00:52:21;;;;;;;1.65;0.70;;;;;;;21.00;27.66;98713.22;4462681;28;20040;-48
2023/12/22 00:54:31;;;;;;;2.53;0.70;;;;;;;21.01;27.68;98714.03;4462758;28;20027;-48
2023/12/22 00:56:42;;;;;;;1.30;0.60;;;;;;;21.00;27.85;98713.22;4462499;28;20126;-48
2023/12/22 00:58:53;;;;;;;1.35;0.70;;;;;;;21.00;28.03;98721.81;4464302;28;20032;-48
2023/12/22 01:01:03;;;;;;;2.17;0.80;;;;;;;21.00;28.09;98713.22;4462670;28;20042;-48
2023/12/22 01:03:14;;;;;;;2.22;0.98;;;;;;;20.99;28.09;98716.50;4460611;28;21966;-51
2023/12/22 01:05:24;;;;;;;1.40;0.60;;;;;;;20.99;28.01;98717.31;4462779;28;20034;-49
2023/12/22 01:07:34;;;;;;;2.42;0.82;;;;;;;20.99;27.91;98702.97;4462375;28;20070;-48
2023/12/22 01:09:45;;;;;;;1.50;0.65;;;;;;;20.99;27.54;98705.84;4463119;28;20114;-49
2023/12/22 01:11:55;;;;;;;2.10;0.60;;;;;;;20.99;27.68;98705.03;4460553;28;20042;-50
2023/12/22 01:14:06;;;;;;;2.33;0.70;;;;;;;20.98;28.23;98704.19;4462358;28;20505;-48
2023/12/22 01:16:19;;;;;;;1.88;0.70;;;;;;;20.97;27.95;98702.56;4463460;28;20118;-49
2023/12/22 01:18:31;;;;;;;1.73;0.73;;;;;;;20.98;27.90;98718.53;4462303;28;20041;-50
2023/12/22 01:20:41;;;;;;;1.65;0.60;;;;;;;20.98;28.24;98712.00;4462362;28;20034;-48
2023/12/22 01:22:52;;;;;;;2.22;0.75;;;;;;;20.97;28.22;98701.75;4461840;28;20858;-48
2023/12/22 01:25:02;;;;;;;1.38;0.60;;;;;;;20.97;28.20;98691.09;4462916;28;29479;-49
2023/12/22 01:27:13;;;;;;;1.95;0.70;;;;;;;20.96;28.34;98705.81;4461439;28;20054;-49
2023/12/22 01:29:23;;;;;;;2.35;0.90;;;;;;;20.96;28.21;98721.03;4461978;28;20062;-48
2023/12/22 01:31:34;;;;;;;1.63;0.70;;;;;;;20.94;28.81;98720.59;4462764;28;20055;-48
2023/12/22 01:33:44;;;;;;;1.70;0.65;;;;;;;20.95;29.16;98719.34;4461932;28;20039;-50
2023/12/22 01:35:54;;;;;;;1.90;0.60;;;;;;;20.96;28.99;98732.50;4463739;28;20039;-48
2023/12/22 01:38:05;;;;;;;3.40;0.80;;;;;;;20.95;29.41;98722.22;4462264;28;20122;-49
2023/12/22 01:40:15;;;;;;;3.22;0.82;;;;;;;20.95;29.30;98719.34;4463201;28;20039;-49
2023/12/22 01:42:26;;;;;;;1.55;0.55;;;;;;;20.94;29.24;98711.97;4462265;28;20484;-49
2023/12/22 01:44:36;;;;;;;3.42;1.15;;;;;;;20.95;29.12;98733.69;4461837;28;20035;-49
2023/12/22 01:46:46;;;;;;;1.33;0.60;;;;;;;20.94;28.70;98717.72;4471192;28;26895;-48
2023/12/22 01:48:58;;;;;;;2.15;0.75;;;;;;;20.95;28.48;98713.59;4460568;28;20051;-47
2023/12/22 01:51:09;;;;;;;2.08;0.75;;;;;;;20.93;28.16;98713.19;4462180;28;20030;-47
2023/12/22 01:53:20;;;;;;;2.10;0.50;;;;;;;20.94;28.42;98708.28;4461965;28;20043;-49
2023/12/22 01:55:31;;;;;;;1.63;0.70;;;;;;;20.93;28.33;98718.94;4462094;28;20035;-48
2023/12/22 01:57:41;;;;;;;1.98;0.70;;;;;;;20.94;28.19;98714.03;4461798;28;20464;-48
2023/12/22 01:59:52;;;;;;;1.63;0.65;;;;;;;20.94;27.92;98728.34;4470383;28;20035;-50
2023/12/22 02:02:03;;;;;;;1.60;0.60;;;;;;;20.92;28.23;98719.34;4461494;28;20059;-48
2023/12/22 02:04:14;;;;;;;1.77;0.70;;;;;;;20.93;27.77;98735.34;4461513;28;20043;-50
2023/12/22 02:06:25;;;;;;;1.50;0.70;;;;;;;20.93;28.00;98756.22;4461281;28;20039;-49
2023/12/22 02:08:36;;;;;;;1.92;0.60;;;;;;;20.91;28.05;98752.13;4460877;28;20035;-48
2023/12/22 02:10:46;;;;;;;1.45;0.60;;;;;;;20.91;27.78;98755.84;4462066;28;20070;-48
2023/12/22 02:12:57;;;;;;;1.55;0.60;;;;;;;20.91;27.95;98764.44;4460883;28;20539;-49
2023/12/22 02:15:08;;;;;;;2.67;0.80;;;;;;;20.91;27.84;98764.44;4461290;28;20046;-48
2023/12/22 02:17:26;;;;;;;2.25;0.60;;;;;;;20.90;27.78;98771.38;4460590;28;20035;-48
2023/12/22 02:19:45;;;;;;;1.02;0.50;;;;;;;20.91;27.67;98777.94;4461774;28;20094;-47
2023/12/22 02:22:06;;;;;;;2.22;0.55;;;;;;;20.91;27.89;98783.69;4461542;28;20023;-48
2023/12/22 02:24:17;;;;;;;1.95;0.70;;;;;;;20.90;27.90;98768.50;4461623;28;20039;-48
2023/12/22 02:26:33;;;;;;;1.75;0.60;;;;;;;20.90;27.94;98774.25;4460543;28;23126;-49
2023/12/22 02:28:46;;;;;;;1.30;0.50;;;;;;;20.91;27.93;98766.47;4462690;28;20906;-48
2023/12/22 02:31:17;;;;;;;1.73;0.60;;;;;;;20.89;27.77;98764.03;4462574;28;20839;-48
2023/12/22 02:33:29;;;;;;;1.38;0.65;;;;;;;20.90;27.96;98751.31;4460774;28;20570;-48
2023/12/22 02:35:42;;;;;;;2.33;0.60;;;;;;;20.89;28.18;98764.03;4461821;28;20835;-48
2023/12/22 02:37:56;;;;;;;1.52;0.60;;;;;;;20.90;27.97;98765.66;4460136;28;20628;-50
2023/12/22 02:40:09;;;;;;;0.88;0.50;;;;;;;20.90;27.72;98770.59;4462090;28;20031;-48
2023/12/22 02:42:23;;;;;;;2.90;0.70;;;;;;;20.90;28.20;98767.72;4460750;28;20782;-49
2023/12/22 02:44:33;;;;;;;2.45;0.70;;;;;;;20.89;27.89;98757.47;4462438;28;20063;-48
2023/12/22 02:46:44;;;;;;;1.23;0.57;;;;;;;20.88;28.14;98782.47;4462159;28;20129;-48
2023/12/22 02:48:54;;;;;;;1.95;0.60;;;;;;;20.88;28.16;98779.59;4460884;28;20039;-48
2023/12/22 02:51:05;;;;;;;1.80;0.65;;;;;;;20.88;27.93;98771.00;4461735;28;20043;-48
2023/12/22 02:53:15;;;;;;;2.20;0.60;;;;;;;20.88;27.58;98776.72;4470984;28;20046;-48
2023/12/22 02:55:26;;;;;;;2.05;0.60;;;;;;;20.86;27.80;98767.72;4461872;28;20065;-49
2023/12/22 02:57:36;;;;;;;1.52;0.68;;;;;;;20.86;27.43;98782.06;4463817;28;20035;-50
2023/12/22 02:59:46;;;;;;;1.73;0.77;;;;;;;20.86;27.43;98767.72;4465147;28;20137;-48
2023/12/22 03:01:57;;;;;;;1.88;0.60;;;;;;;20.86;27.57;98764.84;4462403;28;20930;-47
2023/12/22 03:04:07;;;;;;;2.22;0.70;;;;;;;20.86;27.41;98784.94;4469892;28;20203;-48
2023/12/22 03:06:18;;;;;;;1.30;0.50;;;;;;;20.87;27.89;98788.63;4460780;28;20117;-48
2023/12/22 03:08:31;;;;;;;1.70;0.50;;;;;;;20.86;27.32;98790.66;4460982;28;20114;-48
2023/12/22 03:10:41;;;;;;;2.05;0.60;;;;;;;20.86;27.49;98805.00;4460466;28;20083;-47
2023/12/22 03:12:51;;;;;;;2.30;0.60;;;;;;;20.86;27.65;98799.25;4460219;28;23368;-51
2023/12/22 03:15:02;;;;;;;1.17;0.60;;;;;;;20.86;27.48;98786.97;4460210;28;20039;-47
2023/12/22 03:17:14;;;;;;;1.25;0.60;;;;;;;20.85;27.69;98797.63;4460147;28;20103;-49
2023/12/22 03:19:25;;;;;;;1.52;0.57;;;;;;;20.85;27.42;98786.16;4460447;28;20031;-48
2023/12/22 03:21:35;;;;;;;1.30;0.52;;;;;;;20.85;27.76;98786.16;4461458;28;20031;-48
2023/12/22 03:23:45;;;;;;;1.30;0.60;;;;;;;20.85;27.99;98786.16;4460932;28;20053;-50
2023/12/22 03:25:56;;;;;;;2.85;0.70;;;;;;;20.83;28.09;98789.41;4460808;28;20102;-49
2023/12/22 03:28:07;;;;;;;2.33;0.73;;;;;;;20.84;27.98;98781.63;4459598;28;20036;-48
2023/12/22 03:30:17;;;;;;;1.60;0.60;;;;;;;20.85;27.89;98779.59;4461366;28;20050;-49
2023/12/22 03:32:27;;;;;;;1.20;0.50;;;;;;;20.84;28.28;98781.63;4459197;28;20101;-48
2023/12/22 03:34:38;;;;;;;1.45;0.60;;;;;;;20.84;28.22;98767.31;4460047;28;26851;-47
2023/12/22 03:36:48;;;;;;;1.25;0.50;;;;;;;20.85;28.34;98768.13;4470327;28;20118;-47
2023/12/22 03:38:59;;;;;;;1.67;0.57;;;;;;;20.83;27.93;98766.47;4460438;28;20034;-47
2023/12/22 03:41:09;;;;;;;1.48;0.60;;;;;;;20.83;28.37;98773.44;4461417;28;20477;-48
2023/12/22 03:43:19;;;;;;;2.47;0.60;;;;;;;20.83;28.21;98783.69;4462076;28;20118;-48
2023/12/22 03:45:30;;;;;;;1.42;0.60;;;;;;;20.84;28.16;98784.50;4460792;28;20473;-47
2023/12/22 03:47:40;;;;;;;2.08;0.70;;;;;;;20.82;28.44;98777.56;4460906;28;20082;-51
2023/12/22 03:49:51;;;;;;;1.60;0.50;;;;;;;20.83;28.13;98759.13;4460440;28;20539;-49
2023/12/22 03:52:01;;;;;;;1.98;0.60;;;;;;;20.83;28.12;98770.59;4460429;28;21425;-50
2023/12/22 03:54:11;;;;;;;1.88;0.50;;;;;;;20.83;28.00;98793.53;4460489;28;20046;-48
2023/12/22 03:56:22;;;;;;;1.45;0.50;;;;;;;20.82;27.84;98794.78;4460150;28;20031;-47
2023/12/22 03:58:32;;;;;;;0.93;0.35;;;;;;;20.82;28.03;98797.63;4460161;28;20484;-48
2023/12/22 04:00:43;;;;;;;0.93;0.40;;;;;;;20.80;27.83;98801.72;4460006;28;20035;-49
2023/12/22 04:02:53;;;;;;;0.60;0.30;;;;;;;20.81;28.16;98811.16;4459995;28;20035;-48
2023/12/22 04:05:04;;;;;;;1.02;0.35;;;;;;;20.81;27.55;98802.53;4460529;28;20035;-47
2023/12/22 04:07:14;;;;;;;0.55;0.25;;;;;;;20.81;27.96;98802.53;4460138;28;20035;-48
2023/12/22 04:09:25;;;;;;;0.95;0.20;;;;;;;20.82;27.55;98809.09;4460111;28;20050;-47
2023/12/22 04:11:36;;;;;;;0.68;0.35;;;;;;;20.81;27.83;98819.75;4460399;28;20960;-49
2023/12/22 04:13:47;;;;;;;0.52;0.40;;;;;;;20.81;27.92;98814.00;4460046;28;20151;-47
2023/12/22 04:15:57;;;;;;;1.30;0.40;;;;;;;20.82;28.43;98803.38;4460200;28;20041;-50
2023/12/22 04:18:08;;;;;;;0.68;0.30;;;;;;;20.79;27.99;98780.00;4460212;28;20027;-48
2023/12/22 04:20:18;;;;;;;0.38;0.20;;;;;;;20.79;28.49;98779.19;4460520;28;20481;-48
2023/12/22 04:22:29;;;;;;;0.45;0.22;;;;;;;20.80;28.50;98790.25;4460983;28;20047;-48
2023/12/22 04:24:40;;;;;;;0.73;0.30;;;;;;;20.79;28.52;98796.41;4461344;28;20039;-48
2023/12/22 04:26:50;;;;;;;1.17;0.40;;;;;;;20.80;28.28;98801.72;4463589;28;20404;-47
2023/12/22 04:29:00;;;;;;;0.68;0.30;;;;;;;20.80;28.47;98812.38;4462489;28;22161;-48
2023/12/22 04:31:11;;;;;;;0.82;0.30;;;;;;;20.79;28.05;98817.28;4465092;28;20074;-47
2023/12/22 04:33:21;;;;;;;0.52;0.10;;;;;;;20.78;27.79;98797.63;4463463;28;20022;-48
2023/12/22 04:35:31;;;;;;;0.65;0.22;;;;;;;20.78;27.94;98801.31;4462924;28;20636;-49
2023/12/22 04:37:42;;;;;;;0.43;0.20;;;;;;;20.78;27.78;98791.91;4461470;28;20167;-48
2023/12/22 04:39:52;;;;;;;0.73;0.30;;;;;;;20.78;27.76;98798.47;4462692;28;22361;-47
2023/12/22 04:42:03;;;;;;;0.63;0.30;;;;;;;20.77;28.11;98807.47;4463013;28;20057;-47
2023/12/22 04:44:13;;;;;;;1.55;0.38;;;;;;;20.78;27.60;98794.75;4463478;28;20395;-48
2023/12/22 04:46:24;;;;;;;0.68;0.22;;;;;;;20.78;27.80;98803.38;4460994;28;20110;-48
2023/12/22 04:48:34;;;;;;;0.40;0.13;;;;;;;20.77;27.91;98818.94;4462752;28;20518;-49
2023/12/22 04:50:44;;;;;;;0.68;0.30;;;;;;;20.76;28.19;98834.50;4464087;28;20043;-49
2023/12/22 04:52:55;;;;;;;0.98;0.20;;;;;;;20.77;28.17;98836.16;4462743;28;20189;-50
2023/12/22 04:55:05;;;;;;;0.63;0.20;;;;;;;20.76;28.49;98831.63;4462821;28;20092;-47
2023/12/22 04:57:16;;;;;;;0.60;0.20;;;;;;;20.76;28.70;98832.44;4463534;28;20045;-48
2023/12/22 04:59:26;;;;;;;0.70;0.57;;;;;;;20.76;29.11;98831.63;4462751;28;20431;-48
2023/12/22 05:01:37;;;;;;;0.75;0.35;;;;;;;20.76;29.29;98825.88;4462192;28;20043;-50
2023/12/22 05:03:47;;;;;;;0.35;0.20;;;;;;;20.75;29.20;98836.56;4462316;28;21581;-47
2023/12/22 05:05:57;;;;;;;0.80;0.30;;;;;;;20.73;29.45;98823.84;4462908;28;20047;-47
2023/12/22 05:08:08;;;;;;;0.80;0.32;;;;;;;20.75;29.37;98830.81;4462632;28;20086;-47
2023/12/22 05:10:18;;;;;;;0.55;0.32;;;;;;;20.75;29.52;98827.13;4471316;28;20471;-49
2023/12/22 05:12:28;;;;;;;0.55;0.30;;;;;;;20.75;29.78;98824.25;4463655;28;20415;-48
2023/12/22 05:14:39;;;;;;;0.85;0.30;;;;;;;20.75;29.54;98825.09;4461670;28;27946;-49
2023/12/22 05:16:50;;;;;;;0.35;0.30;;;;;;;20.75;29.49;98821.41;4462027;28;20328;-47
2023/12/22 05:19:01;;;;;;;0.60;0.28;;;;;;;20.73;29.48;98812.38;4461850;28;20035;-47
2023/12/22 05:21:15;;;;;;;0.40;0.30;;;;;;;20.74;29.36;98819.75;4462643;28;20035;-47
2023/12/22 05:23:25;;;;;;;0.45;0.30;;;;;;;20.74;29.63;98822.59;4463126;28;20046;-47
2023/12/22 05:25:36;;;;;;;0.68;0.20;;;;;;;20.74;29.38;98823.44;4461688;28;20048;-48
2023/12/22 05:27:46;;;;;;;0.82;0.35;;;;;;;20.74;29.72;98819.75;4461838;28;20609;-47
2023/12/22 05:30:01;;;;;;;1.55;0.35;;;;;;;20.74;29.57;98839.81;4461229;28;20047;-47
2023/12/22 05:32:11;;;;;;;1.55;0.30;;;;;;;20.73;29.20;98833.28;4461982;28;20554;-47
2023/12/22 05:34:22;;;;;;;0.43;0.30;;;;;;;20.73;29.42;98838.19;4464019;28;20034;-47
2023/12/22 05:36:32;;;;;;;0.98;0.20;;;;;;;20.72;29.30;98822.22;4461724;28;20042;-47
2023/12/22 05:38:42;;;;;;;0.60;0.20;;;;;;;20.72;28.95;98828.75;4467141;28;20023;-47
2023/12/22 05:40:53;;;;;;;1.15;0.30;;;;;;;20.73;29.07;98835.31;4461012;28;20593;-47
2023/12/22 05:43:03;;;;;;;0.68;0.40;;;;;;;20.72;29.23;98836.56;4462408;28;25702;-47
2023/12/22 05:45:14;;;;;;;1.60;0.30;;;;;;;20.71;28.68;98838.59;4462317;28;20492;-47
2023/12/22 05:47:25;;;;;;;0.88;0.50;;;;;;;20.72;28.79;98840.22;4460666;28;20046;-48
2023/12/22 05:49:35;;;;;;;1.55;0.40;;;;;;;20.73;28.67;98835.31;4461169;28;20046;-48
2023/12/22 05:51:45;;;;;;;2.10;0.40;;;;;;;20.72;28.65;98839.41;4461840;28;20111;-48
2023/12/22 05:53:56;;;;;;;1.17;0.40;;;;;;;20.71;29.05;98858.66;4461331;28;20031;-48
2023/12/22 05:56:20;;;;;;;0.50;0.30;;;;;;;20.70;29.02;98842.69;4460617;28;20657;-48
2023/12/22 05:58:30;;;;;;;0.80;0.47;;;;;;;20.71;28.75;98852.09;4461830;28;20142;-49
2023/12/22 06:00:40;;;;;;;1.05;0.38;;;;;;;20.71;28.92;98844.31;4461884;28;20838;-47
2023/12/22 06:02:51;;;;;;;1.27;0.60;;;;;;;20.70;29.23;98850.47;4462876;28;20476;-48
2023/12/22 06:05:01;;;;;;;0.90;0.43;;;;;;;20.70;29.47;98859.91;4462229;28;20039;-49
2023/12/22 06:07:12;;;;;;;0.73;0.38;;;;;;;20.70;29.18;98857.03;4460825;28;20114;-47
2023/12/22 06:09:22;;;;;;;0.95;0.40;;;;;;;20.70;28.97;98856.22;4461662;28;20044;-50
2023/12/22 06:11:32;;;;;;;0.85;0.50;;;;;;;20.69;29.18;98855.38;4462054;28;20125;-48
2023/12/22 06:13:43;;;;;;;1.08;0.52;;;;;;;20.70;28.98;98864.81;4462491;28;22006;-47
2023/12/22 06:15:53;;;;;;;1.17;0.43;;;;;;;20.70;28.72;98873.41;4461910;28;20039;-48
2023/12/22 06:18:04;;;;;;;0.93;0.45;;;;;;;20.69;28.82;98881.19;4460384;28;30893;-48
2023/12/22 06:20:14;;;;;;;2.08;0.73;;;;;;;20.69;28.93;98886.91;4461288;28;20050;-48
2023/12/22 06:22:25;;;;;;;0.82;0.40;;;;;;;20.70;28.95;98894.31;4462645;28;20031;-49
2023/12/22 06:24:38;;;;;;;0.85;0.40;;;;;;;20.69;29.12;98891.84;4459929;28;20039;-48
2023/12/22 06:26:49;;;;;;;1.10;0.40;;;;;;;20.69;28.85;98906.19;4461290;28;20838;-49
2023/12/22 06:28:59;;;;;;;1.45;0.50;;;;;;;20.69;29.08;98906.19;4453165;28;20047;-49
2023/12/22 06:31:21;;;;;;;1.75;0.65;;;;;;;20.69;28.99;98923.38;4462026;28;20117;-48
2023/12/22 06:33:31;;;;;;;0.98;0.40;;;;;;;20.70;28.64;98922.16;4461477;28;20041;-48
2023/12/22 06:35:42;;;;;;;1.42;0.60;;;;;;;20.69;28.89;98921.31;4461827;28;20511;-49
2023/12/22 06:37:54;;;;;;;2.25;0.50;;;;;;;20.69;28.89;98926.25;4461386;28;20035;-48
2023/12/22 06:40:05;;;;;;;1.33;0.60;;;;;;;20.69;28.72;98932.00;4461651;28;20143;-48
2023/12/22 06:42:15;;;;;;;1.17;0.40;;;;;;;20.69;28.65;98937.72;4469974;28;20165;-48
2023/12/22 06:44:26;;;;;;;1.38;0.52;;;;;;;20.68;28.64;98916.00;4461394;28;20035;-52
2023/12/22 06:46:36;;;;;;;0.82;0.40;;;;;;;20.68;28.64;98924.59;4463071;28;20047;-49
2023/12/22 06:48:47;;;;;;;1.63;0.70;;;;;;;20.69;28.92;98932.00;4467215;28;20427;-52
2023/12/22 06:50:57;;;;;;;1.40;0.50;;;;;;;20.68;28.97;98931.16;4461227;28;20492;-48
2023/12/22 06:53:08;;;;;;;0.70;0.50;;;;;;;20.69;29.12;98940.59;4460766;28;20066;-48
2023/12/22 06:55:18;;;;;;;1.55;0.60;;;;;;;20.69;28.97;98950.00;4461661;28;20042;-48
2023/12/22 06:57:28;;;;;;;1.42;0.65;;;;;;;20.68;29.07;98941.78;4460747;28;20039;-49
2023/12/22 06:59:39;;;;;;;1.73;0.60;;;;;;;20.69;28.79;98957.78;4461981;28;20054;-49
2023/12/22 07:01:49;;;;;;;1.02;0.40;;;;;;;20.68;29.01;98956.97;4461772;28;20036;-48
2023/12/22 07:04:02;;;;;;;1.15;0.50;;;;;;;20.68;28.64;98947.53;4460210;28;20034;-50
2023/12/22 07:06:12;;;;;;;2.15;0.60;;;;;;;20.68;28.72;98959.00;4460236;28;20046;-48
2023/12/22 07:08:23;;;;;;;0.70;0.40;;;;;;;20.68;29.11;98964.72;4461681;28;20107;-48
2023/12/22 07:10:33;;;;;;;1.52;0.63;;;;;;;20.68;28.53;98954.09;4461021;28;20041;-49
2023/12/22 07:12:44;;;;;;;1.30;0.40;;;;;;;20.68;29.13;98964.72;4462301;28;20035;-49
2023/12/22 07:14:54;;;;;;;0.95;0.40;;;;;;;20.68;28.89;98959.00;4460368;28;20118;-49
2023/12/22 07:17:04;;;;;;;1.23;0.50;;;;;;;20.68;28.74;98951.22;4460530;28;20532;-49
2023/12/22 07:19:15;;;;;;;1.00;0.43;;;;;;;20.68;28.90;98964.72;4459443;28;20170;-49
2023/12/22 07:21:26;;;;;;;1.23;0.40;;;;;;;20.67;28.65;98957.38;4460248;28;20028;-51
2023/12/22 07:23:36;;;;;;;1.70;0.43;;;;;;;20.68;29.11;98953.25;4461868;28;20121;-48
2023/12/22 07:25:46;;;;;;;0.77;0.50;;;;;;;20.66;28.71;98961.47;4461161;28;20074;-49
2023/12/22 07:27:57;;;;;;;1.60;0.60;;;;;;;20.65;29.14;98971.28;4459876;28;20051;-49
2023/12/22 07:30:08;;;;;;;1.63;0.60;;;;;;;20.67;28.82;98963.09;4470012;28;20039;-48
2023/12/22 07:32:18;;;;;;;1.83;0.60;;;;;;;20.67;28.97;98949.59;4460044;28;20582;-53
2023/12/22 07:34:28;;;;;;;1.45;0.60;;;;;;;20.67;28.99;98954.50;4459894;28;20042;-48
2023/12/22 07:36:39;;;;;;;1.80;0.60;;;;;;;20.66;28.79;98972.94;4464003;28;20035;-48
2023/12/22 07:38:49;;;;;;;1.33;0.50;;;;;;;20.67;28.60;98969.66;4459367;28;20039;-50
2023/12/22 07:41:00;;;;;;;1.65;0.60;;;;;;;20.68;28.76;98959.00;4459316;28;20583;-48
2023/12/22 07:43:10;;;;;;;1.10;0.50;;;;;;;20.68;28.53;98965.56;4459916;28;20130;-50
2023/12/22 07:45:21;;;;;;;1.30;0.50;;;;;;;20.68;28.36;98979.91;4461001;28;20122;-49
2023/12/22 07:47:33;;;;;;;2.67;0.63;;;;;;;20.67;28.60;98974.56;4460965;28;20076;-48
2023/12/22 07:49:43;;;;;;;1.20;0.52;;;;;;;20.68;28.76;98974.16;4459946;28;20031;-49
2023/12/22 07:51:54;;;;;;;1.27;0.55;;;;;;;20.68;28.95;98982.75;4459973;28;20044;-48
2023/12/22 07:54:04;;;;;;;1.98;0.60;;;;;;;20.69;28.41;98995.06;4459587;28;20046;-50
2023/12/22 07:56:14;;;;;;;1.55;0.68;;;;;;;20.68;28.46;99004.88;4469786;28;20049;-48
2023/12/22 07:58:25;;;;;;;2.15;0.80;;;;;;;20.68;28.73;98999.97;4468701;28;20030;-48
2023/12/22 08:00:36;;;;;;;3.60;0.85;;;;;;;20.68;28.66;99010.59;4462815;28;20550;-49
2023/12/22 08:02:46;;;;;;;1.67;0.73;;;;;;;20.68;28.73;98994.22;4463730;28;20030;-52
2023/12/22 08:04:57;;;;;;;2.35;0.65;;;;;;;20.70;28.73;99005.28;4463558;28;20040;-49
2023/12/22 08:07:07;;;;;;;1.65;0.60;;;;;;;20.69;29.01;99006.53;4462795;28;20031;-48
2023/12/22 08:09:18;;;;;;;1.63;0.47;;;;;;;20.69;29.04;99006.53;4463635;28;20049;-48
2023/12/22 08:11:28;;;;;;;2.03;0.63;;;;;;;20.68;29.11;98999.97;4462076;28;20035;-48
2023/12/22 08:13:38;;;;;;;1.30;0.70;;;;;;;20.68;29.06;99004.88;4463075;28;20066;-48
2023/12/22 08:15:49;;;;;;;1.38;0.55;;;;;;;20.69;28.92;98995.06;4463507;28;20034;-53
2023/12/22 08:17:59;;;;;;;1.85;0.50;;;;;;;20.68;28.92;98994.22;4464887;28;20031;-49
2023/12/22 08:20:10;;;;;;;2.53;0.80;;;;;;;20.68;29.20;99011.44;4462094;28;20043;-52
2023/12/22 08:22:22;;;;;;;2.03;0.70;;;;;;;20.68;29.36;99008.56;4467994;28;20031;-50
2023/12/22 08:24:32;;;;;;;2.03;0.80;;;;;;;20.69;29.75;99012.25;4462074;28;20034;-49
2023/12/22 08:26:43;;;;;;;1.85;0.70;;;;;;;20.69;29.73;99018.00;4462366;28;20027;-50
2023/12/22 08:28:53;;;;;;;1.35;0.60;;;;;;;20.69;29.56;99012.25;4463603;28;20050;-48
2023/12/22 08:31:03;;;;;;;1.83;0.68;;;;;;;20.70;29.74;98996.69;4469526;28;20070;-48
2023/12/22 08:33:14;;;;;;;1.15;0.50;;;;;;;20.70;29.78;99014.72;4463295;28;20035;-48
2023/12/22 08:35:24;;;;;;;1.00;0.40;;;;;;;20.70;29.28;99028.22;4462693;28;20413;-48
2023/12/22 08:37:35;;;;;;;1.05;0.55;;;;;;;20.70;29.90;99019.63;4462922;28;20035;-49
2023/12/22 08:39:45;;;;;;;1.70;0.40;;;;;;;20.70;29.81;99013.88;4466668;28;20516;-48
2023/12/22 08:41:55;;;;;;;1.77;0.60;;;;;;;20.69;29.59;99013.06;4462839;28;21453;-47
2023/12/22 08:44:06;;;;;;;0.70;0.40;;;;;;;20.69;29.74;99027.41;4472044;28;20447;-49
2023/12/22 08:46:18;;;;;;;0.60;0.30;;;;;;;20.71;30.17;99029.84;4463550;28;20662;-48
2023/12/22 08:48:28;;;;;;;0.55;0.32;;;;;;;20.72;30.25;99008.59;4460905;28;20057;-48
2023/12/22 08:50:38;;;;;;;0.50;0.20;;;;;;;20.72;30.09;99017.19;4462966;28;20042;-62
2023/12/22 08:52:49;;;;;;;0.65;0.30;;;;;;;20.73;30.28;99031.09;4471310;28;20042;-62
2023/12/22 08:54:59;;;;;;;0.55;0.30;;;;;;;20.75;30.54;99027.84;4462865;28;20167;-62
2023/12/22 08:57:10;;;;;;;0.45;0.20;;;;;;;20.76;30.02;99029.47;4464148;28;20050;-61
2023/12/22 08:59:21;;;;;;;1.15;0.22;;;;;;;20.78;30.43;99041.34;4463667;28;20034;-63
2023/12/22 09:01:31;;;;;;;0.50;0.22;;;;;;;20.80;30.50;99053.25;4462691;28;20395;-48
2023/12/22 09:03:45;;;;;;;0.57;0.20;;;;;;;20.81;30.94;99037.66;4462976;28;20046;-48
2023/12/22 09:05:56;;;;;;;0.30;0.20;;;;;;;20.81;30.91;99057.75;4463661;28;20031;-51
2023/12/22 09:08:06;;;;;;;0.30;0.20;;;;;;;20.84;31.04;99059.78;4463013;28;20047;-48
2023/12/22 09:10:17;;;;;;;1.17;0.30;;;;;;;20.86;30.85;99030.72;4461871;28;20055;-48
2023/12/22 09:12:27;;;;;;;0.60;0.40;;;;;;;20.87;31.30;99023.78;4461983;28;20039;-49
2023/12/22 09:14:37;;;;;;;0.90;0.30;;;;;;;20.89;31.46;99032.75;4462056;28;20476;-49
2023/12/22 09:16:48;;;;;;;0.30;0.20;;;;;;;20.91;31.07;99036.06;4461426;28;20373;-50
2023/12/22 09:18:58;;;;;;;0.68;0.28;;;;;;;20.92;31.47;99044.25;4463408;28;20051;-48
2023/12/22 09:21:08;;;;;;;1.20;0.50;;;;;;;20.93;31.43;99040.16;4462289;28;20058;-52
2023/12/22 09:23:19;;;;;;;0.65;0.30;;;;;;;20.93;31.23;99036.47;4462100;28;20039;-50
2023/12/22 09:25:30;;;;;;;0.30;0.30;;;;;;;20.91;31.43;99042.63;4462902;28;20765;-48
2023/12/22 09:27:40;;;;;;;1.05;0.20;;;;;;;20.89;31.16;99038.50;4461527;28;22048;-48
2023/12/22 09:29:51;;;;;;;1.38;0.35;;;;;;;20.88;31.63;99046.31;4462538;28;20409;-48
2023/12/22 09:32:01;;;;;;;1.17;0.40;;;;;;;20.87;31.29;99047.50;4462859;28;20043;-47
2023/12/22 09:34:12;;;;;;;0.65;0.30;;;;;;;20.86;31.51;99039.31;4462103;28;20042;-51
2023/12/22 09:36:22;;;;;;;0.52;0.32;;;;;;;20.85;31.79;99034.81;4461575;28;20039;-49
2023/12/22 09:38:32;;;;;;;0.52;0.30;;;;;;;20.83;31.71;99038.91;4463137;28;20034;-47
2023/12/22 09:40:43;;;;;;;0.95;0.40;;;;;;;20.83;31.48;99033.16;4462473;28;20083;-49
2023/12/22 09:42:55;;;;;;;1.13;0.30;;;;;;;20.85;31.87;99035.66;4462099;28;20035;-51
2023/12/22 09:45:10;;;;;;;0.52;0.30;;;;;;;20.84;31.46;99036.84;4460843;28;20033;-48
2023/12/22 09:47:22;;;;;;;0.88;0.38;;;;;;;20.83;31.90;99024.56;4462367;28;20035;-49
2023/12/22 09:49:34;;;;;;;1.17;0.40;;;;;;;20.85;31.56;99015.56;4461471;28;20065;-48
2023/12/22 09:51:45;;;;;;;0.40;0.20;;;;;;;20.84;31.83;99002.44;4461875;28;20045;-48
2023/12/22 09:53:58;;;;;;;0.43;0.20;;;;;;;20.85;32.04;98998.38;4461692;28;20039;-48
2023/12/22 09:56:08;;;;;;;0.77;0.30;;;;;;;20.84;31.65;98999.56;4460920;28;20043;-47
2023/12/22 09:58:19;;;;;;;0.80;0.30;;;;;;;20.85;31.38;98988.94;4460647;28;20452;-48
2023/12/22 10:00:31;;;;;;;0.82;0.30;;;;;;;20.84;31.68;98993.84;4461588;28;20055;-48
2023/12/22 10:02:42;;;;;;;0.65;0.30;;;;;;;20.84;31.17;98999.56;4461410;28;20154;-51
2023/12/22 10:04:53;;;;;;;0.50;0.28;;;;;;;20.85;31.43;98997.53;4462983;28;20030;-53
2023/12/22 10:07:04;;;;;;;0.28;0.20;;;;;;;20.85;31.76;98991.81;4461944;28;20051;-51
2023/12/22 10:09:16;;;;;;;0.40;0.20;;;;;;;20.86;31.47;99010.63;4461921;28;20035;-49
2023/12/22 10:11:28;;;;;;;0.80;0.30;;;;;;;20.85;31.38;98995.50;4460980;28;20583;-50
2023/12/22 10:13:41;;;;;;;0.60;0.30;;;;;;;20.85;31.65;99004.09;4460796;28;20043;-52
2023/12/22 10:15:54;;;;;;;0.40;0.20;;;;;;;20.86;31.50;98991.41;4462397;28;20938;-48